createdAt,value
2022-12-28T07:46:00.928Z,333.2
2022-12-28T07:47:00.867Z,360.3
2022-12-28T07:48:00.880Z,387.7
2022-12-28T07:49:00.872Z,415.0
2022-12-28T07:50:01.800Z,442.3
2022-12-28T07:51:00.872Z,472.8
2022-12-28T07:52:00.891Z,503.3
2022-12-28T07:53:00.901Z,523.4
2022-12-28T07:54:00.859Z,543.5
2022-12-28T07:55:01.225Z,563.7
2022-12-28T07:56:00.857Z,593.3
2022-12-28T07:57:01.883Z,623.0
2022-12-28T07:58:00.893Z,663.3
2022-12-28T07:59:00.857Z,703.5
2022-12-28T08:01:00.953Z,817.3
2022-12-28T08:02:00.919Z,890.7
2022-12-28T08:03:00.894Z,952.5
2022-12-28T08:04:00.915Z,1014.3
2022-12-28T08:05:16.060Z,1076.1
2022-12-28T08:06:20.870Z,1145.9
2022-12-28T08:07:01.439Z,1215.7
2022-12-28T08:08:03.639Z,1324.5
2022-12-28T08:09:00.932Z,1433.2
2022-12-28T08:11:00.865Z,1629.2
2022-12-28T08:12:01.373Z,1716.5
2022-12-28T08:13:00.873Z,1816.3
2022-12-28T08:14:00.911Z,1916.1
2022-12-28T08:16:00.909Z,2039.7
2022-12-28T08:17:01.111Z,2063.6
2022-12-28T08:18:00.871Z,2132.1
2022-12-28T08:19:00.993Z,2200.5
2022-12-28T08:21:00.873Z,2298.3
2022-12-28T08:22:20.873Z,2327.5
2022-12-28T08:23:01.842Z,2330.3
2022-12-28T08:24:00.914Z,2333.0
2022-12-28T08:25:00.873Z,2335.7
2022-12-28T08:26:00.873Z,2389.5
2022-12-28T08:27:01.944Z,2443.3
2022-12-28T08:28:01.293Z,2466.3
2022-12-28T08:29:00.897Z,2489.2
2022-12-28T08:30:01.543Z,2512.1
2022-12-28T08:31:00.871Z,2555.3
2022-12-28T08:32:00.866Z,2598.4
2022-12-28T08:33:15.948Z,2610.3
2022-12-28T08:34:15.879Z,2622.1
2022-12-28T08:35:01.425Z,2634.0
2022-12-28T08:36:00.869Z,2713.3
2022-12-28T08:37:00.880Z,2792.7
2022-12-28T08:38:00.870Z,2834.3
2022-12-28T09:03:01.092Z,5252.5
2022-12-28T09:04:00.899Z,5182.6
2022-12-28T09:05:01.236Z,5136.0
2022-12-28T09:06:00.862Z,5186.6
2022-12-28T09:07:00.861Z,5224.5
2022-12-28T09:08:00.860Z,5331.9
2022-12-28T09:09:08.242Z,5417.8
2022-12-28T09:10:02.200Z,5488.1
2022-12-28T09:11:00.859Z,5637.2
2022-12-28T09:12:00.862Z,5763.3
2022-12-28T09:13:00.860Z,6087.8
2022-12-28T09:14:00.910Z,6369.0
2022-12-28T09:15:32.562Z,6605.1
2022-12-28T09:16:15.894Z,6841.1
2022-12-28T09:17:15.872Z,7077.2
2022-12-28T09:18:01.103Z,7397.6
2022-12-28T09:19:00.899Z,7718.0
2022-12-28T09:20:00.865Z,8038.4
2022-12-28T09:21:01.895Z,7979.3
2022-12-28T09:22:00.857Z,7920.3
2022-12-28T09:23:01.125Z,7953.1
2022-12-28T09:24:00.907Z,7985.9
2022-12-28T09:25:00.869Z,8018.7
2022-12-28T09:26:00.855Z,8175.4
2022-12-28T09:27:00.860Z,8332.1
2022-12-28T09:28:15.866Z,8140.2
2022-12-28T09:29:15.869Z,7948.3
2022-12-28T09:31:00.909Z,7487.5
2022-12-28T09:32:00.867Z,7257.1
2022-12-28T09:33:00.861Z,7291.1
2022-12-28T10:00:32.680Z,16100.0
2022-12-28T10:03:01.792Z,16237.3
2022-12-28T10:04:00.425Z,16319.6
2022-12-28T10:05:00.463Z,16374.5
2022-12-28T10:06:00.433Z,16057.6
2022-12-28T10:07:00.421Z,15819.9
2022-12-28T10:08:15.439Z,16149.6
2022-12-28T10:09:00.810Z,16413.3
2022-12-28T10:10:00.464Z,16629.1
2022-12-28T10:11:00.421Z,17412.0
2022-12-28T10:12:00.445Z,18074.5
2022-12-28T10:13:00.447Z,18320.0
2022-12-28T10:14:15.441Z,18532.8
2022-12-28T10:16:00.493Z,19074.1
2022-12-28T10:17:00.439Z,19254.5
2022-12-28T10:18:00.427Z,19430.5
2022-12-28T10:19:00.435Z,19606.4
2022-12-28T10:41:00.848Z,18369.5
2022-12-28T10:42:01.906Z,19054.3
2022-12-28T10:43:03.047Z,20290.5
2022-12-28T10:44:29.612Z,21032.2
2022-12-28T10:46:00.888Z,22049.6
2022-12-28T10:47:00.842Z,22441.8
2022-12-28T10:48:00.822Z,23424.1
2022-12-28T10:49:00.823Z,24210.0
2022-12-28T10:50:36.448Z,24853.0
2022-12-28T10:51:01.067Z,25426.5
2022-12-28T10:52:00.812Z,25911.8
2022-12-28T10:53:00.814Z,26011.9
2022-12-28T10:54:00.829Z,26098.7
2022-12-28T10:55:07.714Z,26832.0
2022-12-28T10:56:01.067Z,28021.9
2022-12-28T10:57:00.815Z,29211.7
2022-12-28T10:58:28.385Z,29613.7
2022-12-28T10:59:00.830Z,30015.6
2022-12-28T11:01:15.959Z,30382.8
2022-12-28T11:02:01.194Z,30348.1
2022-12-28T11:03:01.039Z,31207.8
2022-12-28T11:04:01.929Z,32067.5
2022-12-28T11:05:01.513Z,32927.3
2022-12-28T11:06:00.814Z,33112.7
2022-12-28T11:33:00.935Z,43777.5
2022-12-28T11:34:00.356Z,45673.8
2022-12-28T11:35:00.630Z,46938.0
2022-12-28T12:00:06.049Z,47662.0
2022-12-28T12:01:00.747Z,48794.0
2022-12-28T12:02:00.816Z,49171.3
2022-12-28T12:03:00.787Z,51170.5
2022-12-28T12:04:00.722Z,52370.0
2022-12-28T12:05:15.816Z,53169.7
2022-12-28T12:06:16.760Z,53483.4
2022-12-28T12:07:15.765Z,53718.8
2022-12-28T12:08:16.646Z,54762.2
2022-12-28T12:09:01.257Z,55597.0
2022-12-28T12:10:00.993Z,56280.0
2022-12-28T12:31:01.115Z,49509.0
2022-12-28T12:32:01.079Z,48537.7
2022-12-28T12:33:01.149Z,46850.5
2022-12-28T12:34:01.072Z,45838.2
2022-12-28T12:35:01.569Z,45163.3
2022-12-28T12:36:01.085Z,45824.4
2022-12-28T12:37:01.163Z,46320.3
2022-12-28T12:38:01.363Z,46393.3
2022-12-28T12:39:01.096Z,46451.8
2022-12-28T12:40:16.100Z,46499.6
2022-12-28T12:41:16.105Z,46016.9
2022-12-28T12:42:16.153Z,45608.5
2022-12-28T12:43:16.273Z,44911.6
2022-12-28T12:44:01.284Z,44307.7
2022-12-28T12:45:01.724Z,43203.1
2022-12-28T13:11:00.509Z,20706.5
2022-12-28T13:12:00.511Z,20658.7
2022-12-28T13:13:00.506Z,22766.0
2022-12-28T13:14:01.124Z,24030.4
2022-12-28T13:15:31.306Z,24873.3
2022-12-28T13:16:00.765Z,24680.9
2022-12-28T13:17:00.622Z,24536.5
2022-12-28T13:18:11.540Z,24713.2
2022-12-28T13:19:00.555Z,24854.6
2022-12-28T13:20:00.807Z,24970.3
2022-12-28T13:40:02.342Z,35713.0
2022-12-28T13:41:05.922Z,32066.0
2022-12-28T13:42:00.930Z,30850.3
2022-12-28T13:43:00.913Z,29699.5
2022-12-28T13:44:00.989Z,29009.0
2022-12-28T13:45:17.194Z,28548.7
2022-12-28T13:46:00.957Z,27635.3
2022-12-28T13:47:01.024Z,26950.3
2022-12-28T13:48:00.909Z,26174.6
2022-12-28T13:49:00.972Z,25554.0
2022-12-28T13:50:17.154Z,25046.3
2022-12-28T13:51:16.971Z,24598.8
2022-12-28T13:52:15.934Z,24220.2
2022-12-28T13:53:01.105Z,23732.2
2022-12-28T13:54:04.308Z,23309.3
2022-12-28T13:55:00.905Z,22087.6
2022-12-28T13:56:00.958Z,21194.6
2022-12-28T13:57:20.788Z,20301.6
2022-12-28T13:58:01.122Z,19562.7
2022-12-28T13:59:00.910Z,18823.9
2022-12-28T14:00:01.981Z,18085.0
2022-12-28T14:01:00.973Z,17615.9
2022-12-28T14:02:01.587Z,17146.9
2022-12-28T14:03:01.959Z,16686.5
2022-12-28T14:04:04.702Z,16226.1
2022-12-28T14:06:00.917Z,15354.5
2022-12-28T14:07:00.919Z,14943.3
2022-12-28T14:08:01.532Z,14649.5
2022-12-28T14:09:05.578Z,14355.8
2022-12-28T14:10:00.986Z,14062.1
2022-12-28T14:11:00.970Z,13793.1
2022-12-28T14:12:00.946Z,13524.1
2022-12-28T14:13:15.920Z,13255.4
2022-12-28T14:14:01.147Z,12986.7
2022-12-28T14:16:01.536Z,12562.1
2022-12-28T14:17:00.926Z,12406.2
2022-12-28T14:18:00.972Z,12255.9
